Accueil
METAR-TAF:

METAR-TAF

Aéroports :

Meiringen, Suisse

latitude: 46-44-25N, longitude: 8-06-36E, altitude: 577 m

Observation

Le bulletin a été fait il y a 23 minutes, à 09:50 UTC
Vent 11 kt de direction variable avec des rafales jusqu'à 24 kt
Température -1°C
Humidité 74%
Pression 1010 hPa
Visibilité: 5000 m
Nuages épars à une hauteur de 1600 ft
Ciel couvert à une hauteur de 2000 ft

METAR: LSMM 240950Z AUTO VRB11G24KT 5000NDV SCT016 OVC020 M01/M05 Q1010 RMK

Heure: 11:13 (10:13 UTC)


TAF: absent

Observations et prévisions météorologiques de plus de 4000 aéroports (messages METAR et TAF).

Les stations disponibles sont représentées par des disques jaunes et rouges sur la carte.

Passer la souris dessus pour voir le nom de la station.

Cliquer dessus pour voir les observations et prévisions météorologiques.

Pour changer de carte: cliquez sur les boutons verts avec une croix noire pour zoomer, sur le bouton vert avec un tiret pour effectuer un zoom arrière, ou sur les flèches vertes pour les cartes adjacentes.


METAR-TAF: